createdAt,value
2017-05-30T00:00:18.151Z,25.6
2017-05-30T00:01:20.360Z,25.6
2017-05-30T00:02:23.714Z,25.6
2017-05-30T00:03:26.559Z,25.6
2017-05-30T00:04:29.406Z,25.5
2017-05-30T00:05:33.009Z,25.5
2017-05-30T00:06:35.218Z,25.5
2017-05-30T00:07:38.571Z,25.5
2017-05-30T00:08:41.221Z,25.5
2017-05-30T00:09:44.576Z,25.5
2017-05-30T00:10:47.725Z,25.5
2017-05-30T00:11:50.574Z,25.5
2017-05-30T00:12:53.438Z,25.5
2017-05-30T00:13:56.287Z,25.5
2017-05-30T00:14:59.147Z,25.5
2017-05-30T00:16:02.245Z,25.5
2017-05-30T00:17:04.955Z,25.5
2017-05-30T00:18:08.306Z,25.5
2017-05-30T00:19:11.025Z,25.5
2017-05-30T00:20:13.874Z,25.5
2017-05-30T00:21:17.475Z,25.5
2017-05-30T00:22:19.817Z,25.5
2017-05-30T00:23:23.161Z,25.5
2017-05-30T00:24:26.006Z,25.5
2017-05-30T00:25:28.854Z,25.5
2017-05-30T00:26:31.820Z,25.5
2017-05-30T00:27:34.666Z,25.5
2017-05-30T00:28:38.013Z,25.5
2017-05-30T00:29:40.858Z,25.4
2017-05-30T00:30:43.715Z,25.4
2017-05-30T00:31:46.841Z,25.4
2017-05-30T00:32:49.705Z,25.4
2017-05-30T00:33:52.415Z,25.4
2017-05-30T00:34:55.770Z,25.4
2017-05-30T00:35:58.623Z,25.4
2017-05-30T00:37:01.600Z,25.4
2017-05-30T00:38:04.444Z,25.4
2017-05-30T00:39:07.295Z,25.3
2017-05-30T00:40:10.649Z,25.3
2017-05-30T00:42:16.530Z,25.3
2017-05-30T00:43:19.377Z,25.3
2017-05-30T00:44:22.219Z,25.3
2017-05-30T00:45:25.069Z,25.3
2017-05-30T00:46:28.150Z,25.3
2017-05-30T00:47:31.629Z,25.3
2017-05-30T00:48:33.975Z,25.3
2017-05-30T00:49:37.327Z,25.3
2017-05-30T00:50:40.175Z,25.3
2017-05-30T00:51:43.023Z,25.3
2017-05-30T00:52:46.129Z,25.3
2017-05-30T00:53:48.989Z,25.3
2017-05-30T00:54:51.839Z,25.3
2017-05-30T00:55:54.553Z,25.3
2017-05-30T00:56:57.770Z,25.3
2017-05-30T00:58:00.783Z,25.3
2017-05-30T00:59:03.624Z,25.3
2017-05-30T01:00:06.971Z,25.2
2017-05-30T01:02:12.602Z,25.2
2017-05-30T01:03:15.699Z,25.2
2017-05-30T01:04:18.546Z,25.2
2017-05-30T01:05:21.260Z,25.2
2017-05-30T01:06:24.610Z,25.2
2017-05-30T01:07:27.459Z,25.1
2017-05-30T01:08:30.481Z,25.1
2017-05-30T01:09:33.329Z,25.1
2017-05-30T01:10:36.179Z,25.1
2017-05-30T01:11:39.398Z,25.1
2017-05-30T01:12:42.251Z,25.1
2017-05-30T01:13:45.410Z,25.1
2017-05-30T01:14:48.260Z,25.1
2017-05-30T01:15:51.108Z,25.1
2017-05-30T01:17:56.880Z,25.1
2017-05-30T01:19:01.045Z,25.1
2017-05-30T01:20:02.761Z,25
2017-05-30T01:21:06.108Z,25
2017-05-30T01:22:08.815Z,25
2017-05-30T01:23:11.667Z,25
2017-05-30T01:25:18.601Z,25
2017-05-30T01:26:20.305Z,25
2017-05-30T01:27:23.659Z,25
2017-05-30T01:28:26.372Z,25
2017-05-30T01:29:29.589Z,25
2017-05-30T01:30:32.688Z,25
2017-05-30T01:31:35.533Z,25
2017-05-30T01:32:38.383Z,25
2017-05-30T01:33:41.234Z,25
2017-05-30T01:34:44.318Z,25
2017-05-30T01:35:47.421Z,25
2017-05-30T01:36:50.272Z,25
2017-05-30T01:37:53.124Z,24.9
2017-05-30T01:38:55.975Z,24.9
2017-05-30T01:39:58.846Z,24.9
2017-05-30T01:41:02.501Z,24.9
2017-05-30T01:42:04.845Z,24.9
2017-05-30T01:43:07.692Z,24.9
2017-05-30T01:44:11.042Z,24.9
2017-05-30T01:45:13.891Z,24.9
2017-05-30T01:46:16.855Z,24.9
2017-05-30T01:48:22.620Z,24.8
2017-05-30T01:49:25.466Z,24.8
2017-05-30T01:50:28.684Z,24.8
2017-05-30T01:51:31.650Z,24.8
2017-05-30T01:52:34.363Z,24.8
2017-05-30T01:53:37.212Z,24.8
2017-05-30T01:55:43.490Z,24.8
2017-05-30T01:56:46.462Z,24.8
2017-05-30T01:57:49.864Z,24.8
2017-05-30T01:58:52.074Z,24.8
2017-05-30T01:59:54.788Z,24.8
2017-05-30T02:00:58.141Z,24.7
2017-05-30T02:02:01.237Z,24.7
2017-05-30T02:03:03.815Z,24.7
2017-05-30T02:04:06.664Z,24.7
2017-05-30T02:05:09.883Z,24.7
2017-05-30T02:06:12.597Z,24.7
2017-05-30T02:07:16.201Z,24.7
2017-05-30T02:08:18.423Z,24.7
2017-05-30T02:09:21.776Z,24.6
2017-05-30T02:11:27.535Z,24.6
2017-05-30T02:12:30.634Z,24.6
2017-05-30T02:13:33.484Z,24.6
2017-05-30T02:14:36.334Z,24.6
2017-05-30T02:15:39.055Z,24.6
2017-05-30T02:16:42.410Z,24.6
2017-05-30T02:17:45.505Z,24.6
2017-05-30T02:18:48.349Z,24.6
2017-05-30T02:19:51.192Z,24.6
2017-05-30T02:20:54.581Z,24.6
2017-05-30T02:21:56.927Z,24.6
2017-05-30T02:23:00.080Z,24.6
2017-05-30T02:24:02.933Z,24.5
2017-05-30T02:25:05.790Z,24.5
2017-05-30T02:26:08.639Z,24.5
2017-05-30T02:27:11.481Z,24.5
2017-05-30T02:28:15.084Z,24.5
2017-05-30T02:29:17.431Z,24.5
2017-05-30T02:30:20.512Z,24.5
2017-05-30T02:31:23.361Z,24.5
2017-05-30T02:32:26.208Z,24.5
2017-05-30T02:33:29.812Z,24.5
2017-05-30T02:34:32.161Z,24.5
2017-05-30T02:35:35.010Z,24.5
2017-05-30T02:36:38.370Z,24.5
2017-05-30T02:37:41.218Z,24.4
2017-05-30T02:38:44.190Z,24.4
2017-05-30T02:39:46.905Z,24.4
2017-05-30T02:40:49.752Z,24.4
2017-05-30T02:41:52.600Z,24.4
2017-05-30T02:42:55.951Z,24.3
2017-05-30T02:43:59.070Z,24.3
2017-05-30T02:45:01.420Z,24.3
2017-05-30T02:46:04.774Z,24.3
2017-05-30T02:47:07.622Z,24.3
2017-05-30T02:48:10.469Z,24.3
2017-05-30T02:49:13.570Z,24.3
2017-05-30T02:50:16.284Z,24.3
2017-05-30T02:51:19.131Z,24.3
2017-05-30T02:52:21.986Z,24.3
2017-05-30T02:53:25.066Z,24.3
2017-05-30T02:54:28.175Z,24.3
2017-05-30T02:55:31.026Z,24.3
2017-05-30T02:56:33.729Z,24.3
2017-05-30T02:57:37.077Z,24.3
2017-05-30T02:58:39.780Z,24.3
2017-05-30T03:00:45.838Z,24.3
2017-05-30T03:01:48.680Z,24.3
2017-05-30T03:03:54.308Z,24.2
2017-05-30T03:04:57.151Z,24.2
2017-05-30T03:06:00.757Z,24.2
2017-05-30T03:07:03.098Z,24.2
2017-05-30T03:08:06.443Z,24.2
2017-05-30T03:09:09.285Z,24.2
2017-05-30T03:10:12.125Z,24.1
2017-05-30T03:11:15.217Z,24.1
2017-05-30T03:12:18.060Z,24.1
2017-05-30T03:13:20.767Z,24.1
2017-05-30T03:14:23.611Z,24.1
2017-05-30T03:15:26.965Z,24.1
2017-05-30T03:16:30.058Z,24.1
2017-05-30T03:17:32.450Z,24.1
2017-05-30T03:19:38.206Z,24.1
2017-05-30T03:20:41.545Z,24.1
2017-05-30T03:21:44.637Z,24.1
2017-05-30T03:22:47.486Z,24.1
2017-05-30T03:23:50.330Z,24.1
2017-05-30T03:24:53.173Z,24.1
2017-05-30T03:25:56.020Z,24.1
2017-05-30T03:26:59.113Z,24.1
2017-05-30T03:28:01.956Z,24.1
2017-05-30T03:29:05.215Z,24.1
2017-05-30T03:30:07.284Z,24.1
2017-05-30T03:31:10.499Z,24.1
2017-05-30T03:32:14.105Z,24.1
2017-05-30T03:33:16.380Z,24.1
2017-05-30T03:34:19.395Z,24.1
2017-05-30T03:35:22.242Z,24.1
2017-05-30T03:36:25.346Z,24.1
2017-05-30T03:37:28.301Z,24.1
2017-05-30T03:38:31.014Z,24
2017-05-30T03:39:34.222Z,24
2017-05-30T03:40:36.932Z,24
2017-05-30T03:41:39.774Z,24.1
2017-05-30T03:42:43.375Z,24
2017-05-30T03:43:45.724Z,24
2017-05-30T03:44:49.070Z,24
2017-05-30T03:45:51.917Z,24
2017-05-30T03:46:54.492Z,24
2017-05-30T03:47:57.960Z,24
2017-05-30T03:49:00.448Z,24
2017-05-30T03:50:03.222Z,24
2017-05-30T03:51:06.567Z,24.1
2017-05-30T03:52:09.275Z,24.1
2017-05-30T03:53:12.603Z,24.1
2017-05-30T03:54:15.445Z,24.1
2017-05-30T03:55:18.289Z,24.1
2017-05-30T03:56:21.126Z,24.1
2017-05-30T03:57:23.960Z,24.1
2017-05-30T03:58:27.051Z,24.1
2017-05-30T03:59:29.760Z,24.1
2017-05-30T04:00:33.655Z,24.1
2017-05-30T04:01:35.991Z,24.1
2017-05-30T04:02:38.839Z,24.1
2017-05-30T04:03:41.950Z,24.1
2017-05-30T04:04:44.792Z,24.1
2017-05-30T04:05:47.636Z,24.1
2017-05-30T04:06:50.481Z,24.1
2017-05-30T04:07:53.760Z,24.1
2017-05-30T04:08:56.856Z,24.1
2017-05-30T04:09:59.699Z,24.1
2017-05-30T04:11:02.543Z,24.1
2017-05-30T04:12:05.385Z,24.1
2017-05-30T04:13:08.091Z,24.1
2017-05-30T04:14:11.601Z,24.1
2017-05-30T04:15:14.442Z,24.1
2017-05-30T04:16:17.289Z,24.1
2017-05-30T04:17:20.128Z,24.1
2017-05-30T04:18:22.978Z,24.1
2017-05-30T04:19:26.628Z,24.1
2017-05-30T04:20:28.834Z,24.1
2017-05-30T04:21:31.908Z,24.1
2017-05-30T04:22:34.985Z,24.1
2017-05-30T04:23:37.827Z,24.1
2017-05-30T04:24:41.472Z,24.2
2017-05-30T04:25:43.878Z,24.2
2017-05-30T04:26:46.717Z,24.2
2017-05-30T04:28:52.987Z,24.2
2017-05-30T04:29:56.135Z,24.2
2017-05-30T04:30:58.979Z,24.2
2017-05-30T04:32:02.364Z,24.2
2017-05-30T04:33:04.705Z,24.3
2017-05-30T04:34:07.411Z,24.3
2017-05-30T04:35:10.871Z,24.3
2017-05-30T04:36:13.714Z,24.3
2017-05-30T04:37:16.418Z,24.3
2017-05-30T04:38:19.630Z,24.3
2017-05-30T04:39:22.838Z,24.3
2017-05-30T04:40:25.932Z,24.3
2017-05-30T04:41:28.643Z,24.3
2017-05-30T04:42:31.855Z,24.3
2017-05-30T04:43:34.437Z,24.3
2017-05-30T04:44:37.787Z,24.3
2017-05-30T04:45:40.808Z,24.3
2017-05-30T04:46:43.703Z,24.3
2017-05-30T04:47:46.553Z,24.3
2017-05-30T04:48:49.396Z,24.3
2017-05-30T04:49:52.741Z,24.3
2017-05-30T04:50:55.831Z,24.3
2017-05-30T04:51:58.674Z,24.3
2017-05-30T04:53:01.515Z,24.3
2017-05-30T04:54:04.356Z,24.3
2017-05-30T04:55:07.701Z,24.3
2017-05-30T04:56:10.796Z,24.4
2017-05-30T04:57:13.642Z,24.4
2017-05-30T04:58:16.343Z,24.4
2017-05-30T04:59:19.686Z,24.4
2017-05-30T05:00:22.396Z,24.4
2017-05-30T05:01:25.997Z,24.4
2017-05-30T05:02:28.835Z,24.4
2017-05-30T05:03:31.547Z,24.4
2017-05-30T05:04:35.437Z,24.4
2017-05-30T05:05:37.778Z,24.5
2017-05-30T05:06:40.735Z,24.5
2017-05-30T05:07:43.592Z,24.5
2017-05-30T05:08:46.940Z,24.5
2017-05-30T05:09:49.648Z,24.5
2017-05-30T05:10:52.994Z,24.5
2017-05-30T05:11:56.137Z,24.5
2017-05-30T05:12:58.981Z,24.5
2017-05-30T05:14:01.822Z,24.5
2017-05-30T05:15:04.669Z,24.5
2017-05-30T05:16:07.880Z,24.5
2017-05-30T05:17:10.976Z,24.5
2017-05-30T05:18:13.814Z,24.5
2017-05-30T05:19:17.034Z,24.5
2017-05-30T05:20:19.739Z,24.5
2017-05-30T05:21:23.082Z,24.5
2017-05-30T05:22:26.545Z,24.5
2017-05-30T05:23:28.882Z,24.5
2017-05-30T05:24:32.095Z,24.5
2017-05-30T05:25:35.314Z,24.6
2017-05-30T05:26:38.160Z,24.6
2017-05-30T05:27:41.258Z,24.6
2017-05-30T05:28:44.110Z,24.6
2017-05-30T05:29:47.465Z,24.6
2017-05-30T05:30:50.306Z,24.6
2017-05-30T05:31:53.524Z,24.6
2017-05-30T05:32:56.490Z,24.6
2017-05-30T05:33:59.344Z,24.6
2017-05-30T05:35:03.238Z,24.6
2017-05-30T05:36:05.586Z,24.6
2017-05-30T05:37:08.298Z,24.6
2017-05-30T05:38:11.898Z,24.6
2017-05-30T05:39:14.610Z,24.6
2017-05-30T05:40:17.452Z,24.7
2017-05-30T05:42:23.712Z,24.7
2017-05-30T05:43:27.308Z,24.7
2017-05-30T05:44:29.650Z,24.7
2017-05-30T05:45:32.997Z,24.7
2017-05-30T05:46:35.842Z,24.7
2017-05-30T05:47:39.186Z,24.7
2017-05-30T05:48:42.144Z,24.7
2017-05-30T05:49:44.985Z,24.8
2017-05-30T05:50:48.330Z,24.8
2017-05-30T05:51:51.169Z,24.8
2017-05-30T05:52:54.384Z,24.8
2017-05-30T05:53:57.479Z,24.8
2017-05-30T05:55:00.323Z,24.8
2017-05-30T05:56:03.671Z,24.8
2017-05-30T05:57:06.523Z,24.8
2017-05-30T05:58:09.370Z,24.8
2017-05-30T05:59:12.885Z,24.8
2017-05-30T06:00:15.727Z,24.9
2017-05-30T06:01:18.567Z,24.9
2017-05-30T06:02:21.907Z,24.9
2017-05-30T06:03:24.748Z,24.9
2017-05-30T06:04:28.213Z,24.9
2017-05-30T06:05:31.062Z,24.9
2017-05-30T06:06:33.907Z,24.9
2017-05-30T06:07:37.122Z,24.8
2017-05-30T06:08:40.334Z,24.9
2017-05-30T06:09:43.476Z,24.8
2017-05-30T06:10:46.316Z,24.8
2017-05-30T06:11:49.662Z,24.8
2017-05-30T06:12:52.244Z,24.8
2017-05-30T06:13:55.595Z,24.8
2017-05-30T06:14:58.691Z,24.8
2017-05-30T06:16:01.537Z,24.8
2017-05-30T06:17:04.752Z,24.8
2017-05-30T06:18:07.696Z,24.8
2017-05-30T06:19:11.039Z,24.8
2017-05-30T06:20:14.134Z,24.8
2017-05-30T06:21:16.988Z,24.8
2017-05-30T06:22:19.832Z,24.8
2017-05-30T06:23:23.047Z,24.8
2017-05-30T06:24:25.890Z,24.8
2017-05-30T06:25:29.484Z,24.8
2017-05-30T06:26:32.330Z,24.8
2017-05-30T06:27:35.221Z,24.8
2017-05-30T06:28:38.066Z,24.8
2017-05-30T06:29:41.415Z,24.8
2017-05-30T06:30:44.505Z,24.8
2017-05-30T06:31:47.281Z,24.8
2017-05-30T06:33:53.412Z,24.8
2017-05-30T06:34:56.756Z,24.8
2017-05-30T06:35:59.783Z,24.8
2017-05-30T06:37:02.358Z,24.8
2017-05-30T06:38:05.701Z,24.8
2017-05-30T06:39:08.546Z,24.8
2017-05-30T06:40:11.889Z,24.8
2017-05-30T06:41:14.852Z,24.8
2017-05-30T06:42:17.691Z,24.8
2017-05-30T06:43:21.034Z,24.8
2017-05-30T06:44:23.738Z,24.8
2017-05-30T06:45:27.081Z,24.8
2017-05-30T06:46:29.912Z,24.8
2017-05-30T06:47:33.260Z,24.8
2017-05-30T06:48:36.103Z,24.9
2017-05-30T06:49:38.942Z,24.9
2017-05-30T06:50:42.153Z,24.9
2017-05-30T06:51:45.244Z,24.9
2017-05-30T06:52:48.456Z,24.9
2017-05-30T06:53:51.298Z,24.9
2017-05-30T06:54:54.148Z,24.9
2017-05-30T06:55:57.499Z,24.9
2017-05-30T06:57:00.593Z,24.9
2017-05-30T06:58:03.432Z,24.9
2017-05-30T06:59:06.269Z,24.9
2017-05-30T07:00:09.674Z,24.9
2017-05-30T07:01:12.517Z,24.9
2017-05-30T07:02:16.036Z,24.9
2017-05-30T07:03:18.751Z,24.9
2017-05-30T07:04:21.596Z,24.9
2017-05-30T07:05:24.954Z,24.9
2017-05-30T07:06:27.797Z,24.9
2017-05-30T07:07:31.122Z,24.9
2017-05-30T07:08:33.961Z,24.9
2017-05-30T07:09:36.803Z,24.9
2017-05-30T07:10:40.147Z,24.9
2017-05-30T07:11:42.985Z,24.9
2017-05-30T07:12:46.079Z,24.9
2017-05-30T07:13:48.930Z,24.9
2017-05-30T07:14:52.281Z,24.9
2017-05-30T07:15:55.123Z,24.9
2017-05-30T07:16:57.968Z,24.9
2017-05-30T07:18:01.588Z,24.9
2017-05-30T07:19:04.434Z,24.9
2017-05-30T07:20:07.284Z,24.9
2017-05-30T07:21:09.998Z,24.9
2017-05-30T07:22:13.340Z,24.9
2017-05-30T07:23:16.349Z,24.9
2017-05-30T07:24:19.055Z,24.9
2017-05-30T07:25:22.270Z,24.9
2017-05-30T07:26:25.613Z,24.9
2017-05-30T07:27:28.201Z,24.8
2017-05-30T07:28:31.532Z,24.9
2017-05-30T07:29:34.238Z,24.9
2017-05-30T07:30:37.449Z,24.9
2017-05-30T07:31:40.798Z,24.9
2017-05-30T07:32:43.647Z,24.9
2017-05-30T07:33:46.747Z,24.9
2017-05-30T07:34:49.589Z,24.9
2017-05-30T07:35:52.939Z,24.9
2017-05-30T07:36:55.783Z,24.9
2017-05-30T07:37:58.998Z,24.9
2017-05-30T07:39:02.093Z,24.9
2017-05-30T07:40:04.802Z,24.9
2017-05-30T07:41:07.642Z,24.9
2017-05-30T07:42:10.858Z,24.9
2017-05-30T07:43:14.120Z,24.9
2017-05-30T07:45:20.003Z,24.9
2017-05-30T07:46:22.710Z,24.9
2017-05-30T07:47:26.059Z,24.9
2017-05-30T07:48:28.908Z,25
2017-05-30T07:49:32.125Z,25
2017-05-30T07:50:35.221Z,25
2017-05-30T07:51:38.059Z,25
2017-05-30T07:52:40.905Z,25
2017-05-30T07:53:44.331Z,25
2017-05-30T07:54:47.183Z,25
2017-05-30T07:55:50.277Z,25
2017-05-30T07:56:53.116Z,25
2017-05-30T07:57:56.330Z,25
2017-05-30T07:58:59.176Z,25
2017-05-30T08:00:02.524Z,25
2017-05-30T08:01:06.217Z,25
2017-05-30T08:02:08.435Z,25
2017-05-30T08:03:11.277Z,25
2017-05-30T08:04:14.491Z,25
2017-05-30T08:05:17.881Z,25.1
2017-05-30T08:07:23.888Z,25.1
2017-05-30T08:08:26.732Z,25.2
2017-05-30T08:09:29.441Z,25.2
2017-05-30T08:10:32.660Z,25.3
2017-05-30T08:11:35.506Z,25.3
2017-05-30T08:12:39.102Z,25.4
2017-05-30T08:13:41.946Z,25.4
2017-05-30T08:14:44.794Z,25.5
2017-05-30T08:16:51.061Z,25.5
2017-05-30T08:17:54.160Z,25.4
2017-05-30T08:18:56.868Z,25.4
2017-05-30T08:20:00.217Z,25.4
2017-05-30T08:21:03.070Z,25.4
2017-05-30T08:22:06.435Z,25.3
2017-05-30T08:23:09.532Z,25.3
2017-05-30T08:24:12.244Z,25.3
2017-05-30T08:25:15.591Z,25.3
2017-05-30T08:26:18.435Z,25.3
2017-05-30T08:27:21.781Z,25.3
2017-05-30T08:28:24.883Z,25.3
2017-05-30T08:29:27.726Z,25.3
2017-05-30T08:30:31.626Z,25.3
2017-05-30T08:31:33.965Z,25.3
2017-05-30T08:32:36.805Z,25.3
2017-05-30T08:33:40.137Z,25.3
2017-05-30T08:34:42.849Z,25.3
2017-05-30T08:35:46.067Z,25.3
2017-05-30T08:36:49.415Z,25.3
2017-05-30T08:37:52.123Z,25.3
2017-05-30T08:38:55.721Z,25.3
2017-05-30T08:39:58.435Z,25.3
2017-05-30T08:41:01.644Z,25.3
2017-05-30T08:42:04.349Z,25.3
2017-05-30T08:43:07.566Z,25.3
2017-05-30T08:44:10.713Z,25.3
2017-05-30T08:45:13.557Z,25.3
2017-05-30T08:46:16.266Z,25.3
2017-05-30T08:47:19.479Z,25.3
2017-05-30T08:48:22.701Z,25.3
2017-05-30T08:49:25.668Z,25.3
2017-05-30T08:50:28.882Z,25.3
2017-05-30T08:51:31.585Z,25.3
2017-05-30T08:52:34.801Z,25.3
2017-05-30T08:53:38.149Z,25.3
2017-05-30T08:54:41.245Z,25.3
2017-05-30T08:55:44.091Z,25.3
2017-05-30T08:56:46.933Z,25.3
2017-05-30T08:57:50.279Z,25.3
2017-05-30T08:58:53.530Z,25.3
2017-05-30T08:59:56.628Z,25.3
2017-05-30T09:00:59.354Z,25.3
2017-05-30T09:02:02.202Z,25.3
2017-05-30T09:03:05.551Z,25.3
2017-05-30T09:04:08.393Z,25.4
2017-05-30T09:05:11.726Z,25.4
2017-05-30T09:06:14.430Z,25.4
2017-05-30T09:07:17.779Z,25.4
2017-05-30T09:08:20.630Z,25.4
2017-05-30T09:09:23.479Z,25.4
2017-05-30T09:10:27.073Z,25.4
2017-05-30T09:11:29.921Z,25.4
2017-05-30T09:12:32.759Z,25.4
2017-05-30T09:13:35.974Z,25.4
2017-05-30T09:14:38.816Z,25.4
2017-05-30T09:15:42.415Z,25.4
2017-05-30T09:16:45.261Z,25.5
2017-05-30T09:17:48.125Z,25.5
2017-05-30T09:18:50.967Z,25.5
2017-05-30T09:19:54.314Z,25.5
2017-05-30T09:20:57.966Z,25.5
2017-05-30T09:22:00.302Z,25.5
2017-05-30T09:23:02.878Z,25.5
2017-05-30T09:24:06.227Z,25.5
2017-05-30T09:25:09.572Z,25.5
2017-05-30T09:26:12.536Z,25.6
2017-05-30T09:27:15.382Z,25.6
2017-05-30T09:28:18.729Z,25.6
2017-05-30T09:29:21.945Z,25.6
2017-05-30T09:30:24.658Z,25.6
2017-05-30T09:31:28.125Z,25.6
2017-05-30T09:32:30.979Z,25.6
2017-05-30T09:33:33.552Z,25.6
2017-05-30T09:34:36.894Z,25.6
2017-05-30T09:35:40.104Z,25.6
2017-05-30T09:36:43.563Z,25.6
2017-05-30T09:37:46.403Z,25.6
2017-05-30T09:38:49.107Z,25.6
2017-05-30T09:39:52.320Z,25.6
2017-05-30T09:40:55.667Z,25.6
2017-05-30T09:41:58.762Z,25.6
2017-05-30T09:43:01.601Z,25.6
2017-05-30T09:44:04.814Z,25.6
2017-05-30T09:45:07.657Z,25.6
2017-05-30T09:46:11.006Z,25.6
2017-05-30T09:47:14.102Z,25.6
2017-05-30T09:48:16.949Z,25.6
2017-05-30T09:49:19.657Z,25.6
2017-05-30T09:50:22.868Z,25.6
2017-05-30T09:51:26.217Z,25.6
2017-05-30T09:52:29.310Z,25.6
2017-05-30T09:53:32.156Z,25.6
2017-05-30T09:54:35.499Z,25.7
2017-05-30T09:55:38.072Z,25.6
2017-05-30T09:56:41.413Z,25.6
2017-05-30T09:57:45.013Z,25.7
2017-05-30T09:58:47.852Z,25.7
2017-05-30T09:59:50.690Z,25.7
2017-05-30T10:00:53.900Z,25.7
2017-05-30T10:01:56.609Z,25.7
2017-05-30T10:03:00.070Z,25.7
2017-05-30T10:04:02.911Z,25.7
2017-05-30T10:05:06.670Z,25.7
2017-05-30T10:06:09.011Z,25.6
2017-05-30T10:07:12.364Z,25.6
2017-05-30T10:08:15.457Z,25.6
2017-05-30T10:09:18.297Z,25.6
2017-05-30T10:10:21.142Z,25.6
2017-05-30T10:11:24.222Z,25.6
2017-05-30T10:12:27.571Z,25.6
2017-05-30T10:13:30.667Z,25.6
2017-05-30T10:14:33.507Z,25.6
2017-05-30T10:15:36.219Z,25.5
2017-05-30T10:16:39.561Z,25.5
2017-05-30T10:17:42.266Z,25.5
2017-05-30T10:18:45.862Z,25.5
2017-05-30T10:19:48.697Z,25.5
2017-05-30T10:20:51.782Z,25.5
2017-05-30T10:21:54.486Z,25.5
2017-05-30T10:22:57.834Z,25.6
2017-05-30T10:24:00.932Z,25.6
2017-05-30T10:25:04.331Z,25.6
2017-05-30T10:26:06.671Z,25.6
2017-05-30T10:27:10.011Z,25.6
2017-05-30T10:28:12.583Z,25.6
2017-05-30T10:29:16.091Z,25.5
2017-05-30T10:31:22.416Z,25.5
2017-05-30T10:32:25.257Z,25.5
2017-05-30T10:33:27.963Z,25.4
2017-05-30T10:34:31.054Z,25.4
2017-05-30T10:35:33.892Z,25.4
2017-05-30T10:36:36.972Z,25.3
2017-05-30T10:37:39.825Z,25.3
2017-05-30T10:38:43.164Z,25.3
2017-05-30T10:39:45.987Z,25.3
2017-05-30T10:40:48.829Z,25.3
2017-05-30T10:41:52.180Z,25.3
2017-05-30T10:42:55.018Z,25.3
2017-05-30T10:43:57.451Z,25.3
2017-05-30T10:45:01.049Z,25.3
2017-05-30T10:46:03.889Z,25.3
2017-05-30T10:47:06.731Z,25.3
2017-05-30T10:48:10.077Z,25.3
2017-05-30T10:49:12.789Z,25.3
2017-05-30T10:50:15.750Z,25.3
2017-05-30T10:51:18.592Z,25.4
2017-05-30T10:52:21.804Z,25.4
2017-05-30T10:53:24.377Z,25.4
2017-05-30T10:54:27.587Z,25.4
2017-05-30T10:55:31.179Z,25.4
2017-05-30T10:56:33.381Z,25.4
2017-05-30T10:57:36.600Z,25.4
2017-05-30T10:58:39.448Z,25.4
2017-05-30T10:59:42.786Z,25.4
2017-05-30T11:00:45.747Z,25.4
2017-05-30T11:01:48.584Z,25.4
2017-05-30T11:02:51.420Z,25.4
2017-05-30T11:03:54.631Z,25.4
2017-05-30T11:04:57.471Z,25.4
2017-05-30T11:06:00.561Z,25.4
2017-05-30T11:07:03.401Z,25.4
2017-05-30T11:08:06.617Z,25.4
2017-05-30T11:09:09.461Z,25.4
2017-05-30T11:10:12.162Z,25.4
2017-05-30T11:11:15.760Z,25.3
2017-05-30T11:12:17.965Z,25.3
2017-05-30T11:13:21.314Z,25.1
2017-05-30T11:14:24.155Z,25.1
2017-05-30T11:15:26.994Z,25.1
2017-05-30T11:16:30.276Z,25
2017-05-30T11:17:32.853Z,25
2017-05-30T11:18:36.064Z,25
2017-05-30T11:19:38.908Z,25.1
2017-05-30T11:20:42.252Z,25.1
2017-05-30T11:21:45.346Z,25.1
2017-05-30T11:22:48.194Z,25.1
2017-05-30T11:23:50.901Z,25.1
2017-05-30T11:24:53.746Z,25.1
2017-05-30T11:25:56.958Z,25.1
2017-05-30T11:27:00.050Z,25.1
2017-05-30T11:28:02.897Z,25.1
2017-05-30T11:29:05.737Z,25.1
2017-05-30T11:30:08.584Z,25.2
2017-05-30T11:31:11.794Z,25.2
2017-05-30T11:32:14.809Z,25.3
2017-05-30T11:33:17.655Z,25.3
2017-05-30T11:34:20.871Z,25.3
2017-05-30T11:35:23.711Z,25.3
2017-05-30T11:36:26.557Z,25.3
2017-05-30T11:37:29.651Z,25.3
2017-05-30T11:38:32.492Z,25.3
2017-05-30T11:39:35.705Z,25.3
2017-05-30T11:40:38.550Z,25.4
2017-05-30T11:41:41.398Z,25.4
2017-05-30T11:42:45.046Z,25.4
2017-05-30T11:43:47.256Z,25.4
2017-05-30T11:44:50.608Z,25.4
2017-05-30T11:45:53.317Z,25.5
2017-05-30T11:46:56.660Z,25.5
2017-05-30T11:47:59.751Z,25.5
2017-05-30T11:49:02.592Z,25.5
2017-05-30T11:50:05.304Z,25.5
2017-05-30T11:51:08.513Z,25.5
2017-05-30T11:52:11.724Z,25.5
2017-05-30T11:54:18.282Z,25.5
2017-05-30T11:55:20.620Z,25.5
2017-05-30T11:56:23.466Z,25.5
2017-05-30T11:57:26.180Z,25.5
2017-05-30T11:58:29.526Z,25.5
2017-05-30T11:59:32.536Z,25.5
2017-05-30T12:00:35.382Z,25.5
2017-05-30T12:01:38.730Z,25.5
2017-05-30T12:02:41.165Z,25.5
2017-05-30T12:03:44.372Z,25.5
2017-05-30T12:04:47.835Z,25.6
2017-05-30T12:05:50.545Z,25.6
2017-05-30T12:06:53.889Z,25.5
2017-05-30T12:07:56.727Z,25.6
2017-05-30T12:08:59.568Z,25.6
2017-05-30T12:10:03.036Z,25.6
2017-05-30T12:11:05.745Z,25.6
2017-05-30T12:12:08.317Z,25.6
2017-05-30T12:13:11.660Z,25.6
2017-05-30T12:14:14.873Z,25.6
2017-05-30T12:15:17.965Z,25.6
2017-05-30T12:16:20.804Z,25.6
2017-05-30T12:17:24.152Z,25.6
2017-05-30T12:18:26.992Z,25.6
2017-05-30T12:19:29.839Z,25.6
2017-05-30T12:20:33.491Z,25.6
2017-05-30T12:21:36.351Z,25.6
2017-05-30T12:22:39.193Z,25.6
2017-05-30T12:23:42.036Z,25.6
2017-05-30T12:24:45.386Z,25.6
2017-05-30T12:25:48.092Z,25.6
2017-05-30T12:26:51.440Z,25.6
2017-05-30T12:27:54.279Z,25.6
2017-05-30T12:28:57.620Z,25.6
2017-05-30T12:30:00.464Z,25.6
2017-05-30T12:31:03.562Z,25.6
2017-05-30T12:32:06.271Z,25.6
2017-05-30T12:33:09.615Z,25.6
2017-05-30T12:34:12.691Z,25.6
2017-05-30T12:35:15.529Z,25.6
2017-05-30T12:36:18.990Z,25.6
2017-05-30T12:37:21.839Z,25.6
2017-05-30T12:38:24.680Z,25.7
2017-05-30T12:39:28.029Z,25.7
2017-05-30T12:40:30.869Z,25.7
2017-05-30T12:41:33.963Z,25.7
2017-05-30T12:42:36.675Z,25.7
2017-05-30T12:43:40.019Z,25.7
2017-05-30T12:44:42.861Z,25.7
2017-05-30T12:45:46.205Z,25.7
2017-05-30T12:46:49.298Z,25.7
2017-05-30T12:47:51.872Z,25.7
2017-05-30T12:48:54.948Z,25.7
2017-05-30T12:49:58.291Z,25.7
2017-05-30T12:51:01.004Z,25.7
2017-05-30T12:52:04.509Z,25.7
2017-05-30T12:53:07.216Z,25.7
2017-05-30T12:54:10.564Z,25.7
2017-05-30T12:55:13.407Z,25.7
2017-05-30T12:56:16.616Z,25.7
2017-05-30T12:57:19.711Z,25.7
2017-05-30T12:58:22.558Z,25.7
2017-05-30T12:59:25.908Z,25.7
2017-05-30T13:00:28.744Z,25.7
2017-05-30T13:01:31.451Z,25.6
2017-05-30T13:02:34.911Z,25.7
2017-05-30T13:03:37.748Z,25.7
2017-05-30T13:04:41.144Z,25.7
2017-05-30T13:05:43.993Z,25.6
2017-05-30T13:06:46.565Z,25.7
2017-05-30T13:07:50.036Z,25.7
2017-05-30T13:08:52.743Z,25.6
2017-05-30T13:09:56.083Z,25.7
2017-05-30T13:10:58.926Z,25.7
2017-05-30T13:12:02.137Z,25.7
2017-05-30T13:13:05.233Z,25.7
2017-05-30T13:14:07.940Z,25.7
2017-05-30T13:15:11.285Z,25.7
2017-05-30T13:16:14.127Z,25.7
2017-05-30T13:17:17.341Z,25.7
2017-05-30T13:18:20.443Z,25.7
2017-05-30T13:19:23.287Z,25.7
2017-05-30T13:20:26.631Z,25.7
2017-05-30T13:21:29.475Z,25.7
2017-05-30T13:22:32.184Z,25.7
2017-05-30T13:23:35.783Z,25.7
2017-05-30T13:24:38.624Z,25.7
2017-05-30T13:25:41.463Z,25.7
2017-05-30T13:26:44.671Z,25.7
2017-05-30T13:27:47.511Z,25.7
2017-05-30T13:28:51.110Z,25.7
2017-05-30T13:29:53.452Z,25.7
2017-05-30T13:30:56.801Z,25.7
2017-05-30T13:31:59.509Z,25.7
2017-05-30T13:33:02.858Z,25.7
2017-05-30T13:34:05.820Z,25.7
2017-05-30T13:35:08.660Z,25.7
2017-05-30T13:36:11.874Z,25.7
2017-05-30T13:37:15.086Z,25.7
2017-05-30T13:38:17.929Z,25.7
2017-05-30T13:39:21.392Z,25.7
2017-05-30T13:40:24.235Z,25.7
2017-05-30T13:41:27.076Z,25.8
2017-05-30T13:42:29.918Z,25.7
2017-05-30T13:43:33.263Z,25.8
2017-05-30T13:44:36.220Z,25.7
2017-05-30T13:45:39.201Z,25.8
2017-05-30T13:46:42.413Z,25.8
2017-05-30T13:47:45.263Z,25.8
2017-05-30T13:48:48.483Z,25.8
2017-05-30T13:49:51.635Z,25.8
2017-05-30T13:50:54.344Z,25.8
2017-05-30T13:51:57.559Z,25.8
2017-05-30T13:53:00.267Z,25.8
2017-05-30T13:55:06.776Z,25.8
2017-05-30T13:56:09.623Z,25.8
2017-05-30T13:57:12.393Z,25.8
2017-05-30T13:58:15.601Z,25.8
2017-05-30T13:59:18.449Z,25.8
2017-05-30T14:00:22.051Z,25.8
2017-05-30T14:01:24.763Z,25.8
2017-05-30T14:02:27.841Z,25.8
2017-05-30T14:03:30.683Z,25.8
2017-05-30T14:04:33.758Z,25.8
2017-05-30T14:05:37.356Z,25.8
2017-05-30T14:06:40.205Z,25.9
2017-05-30T14:07:43.048Z,25.9
2017-05-30T14:08:45.760Z,25.9
2017-05-30T14:09:49.104Z,25.9
2017-05-30T14:10:52.242Z,25.9
2017-05-30T14:11:55.631Z,25.9
2017-05-30T14:12:58.478Z,25.9
2017-05-30T14:14:01.319Z,25.9
2017-05-30T14:15:04.531Z,25.9
2017-05-30T14:16:07.495Z,25.9
2017-05-30T14:17:10.705Z,25.9
2017-05-30T14:18:13.549Z,25.9
2017-05-30T14:19:16.395Z,25.9
2017-05-30T14:20:19.745Z,25.9
2017-05-30T14:21:22.842Z,25.9